NJE2QB LIMJ-LDSP
Flight info
| Callsign | NJE2QB |
|---|---|
| Flight time | 1h 6m |
| Altitude | 41000 |
| Route | GEN DCT BEROK DCT RUXOL DCT VABMO M730 LIKNO DCT ANC/N0454F400 DCT TORPO |
| Aircraft | CL60/M-SBDE1E2E3FGHIJ1J3J4J7RWXYZ/LB1D1 |
Departure
| Time | 2026-04-16 08:05 |
|---|---|
| Airport | Genoa Cristoforo Colombo Airport (LIMJ) |
Arrival
| Time | 2026-04-16 09:12 |
|---|---|
| Airport | Split Saint Jerome Airport (LDSP) |
| Time | Latitude | Longitude | Altitude | Speed | Heading |
|---|---|---|---|---|---|
| 2026-04-16 07:30 | 44.41745 | 8.85218 | 28 ft | 0 kts | 104° |
| 2026-04-16 08:01 | 44.41754 | 8.85229 | 31 ft | 6 kts | 305° |
| 2026-04-16 08:01 | 44.41732 | 8.85120 | 30 ft | 16 kts | 235° |
| 2026-04-16 08:01 | 44.41654 | 8.84999 | 30 ft | 16 kts | 227° |
| 2026-04-16 08:02 | 44.41570 | 8.84865 | 29 ft | 20 kts | 232° |
| 2026-04-16 08:02 | 44.41367 | 8.84496 | 28 ft | 27 kts | 232° |
| 2026-04-16 08:02 | 44.41323 | 8.84327 | 28 ft | 19 kts | 286° |
| 2026-04-16 08:03 | 44.41362 | 8.84129 | 27 ft | 22 kts | 285° |
| 2026-04-16 08:03 | 44.41407 | 8.83899 | 27 ft | 25 kts | 285° |
| 2026-04-16 08:03 | 44.41457 | 8.83647 | 27 ft | 28 kts | 285° |
| 2026-04-16 08:03 | 44.41510 | 8.83376 | 27 ft | 29 kts | 287° |
| 2026-04-16 08:04 | 44.41556 | 8.83138 | 27 ft | 26 kts | 286° |
| 2026-04-16 08:04 | 44.41608 | 8.82878 | 27 ft | 29 kts | 286° |
| 2026-04-16 08:04 | 44.41659 | 8.82615 | 27 ft | 22 kts | 285° |
| 2026-04-16 08:04 | 44.41614 | 8.82499 | 27 ft | 16 kts | 195° |
| 2026-04-16 08:05 | 44.41530 | 8.82492 | 27 ft | 7 kts | 114° |
| 2026-04-16 08:05 | 44.41508 | 8.82599 | 27 ft | 23 kts | 105° |
| 2026-04-16 08:05 | 44.41359 | 8.83357 | 28 ft | 136 kts | 105° |
| 2026-04-16 08:05 | 44.41027 | 8.84867 | 627 ft | 178 kts | 105° |
| 2026-04-16 08:06 | 44.40610 | 8.86517 | 1584 ft | 191 kts | 115° |
| 2026-04-16 08:06 | 44.39629 | 8.87687 | 2855 ft | 200 kts | 162° |
| 2026-04-16 08:06 | 44.38325 | 8.87481 | 4198 ft | 202 kts | 209° |
| 2026-04-16 08:06 | 44.37327 | 8.86191 | 5444 ft | 205 kts | 229° |
| 2026-04-16 08:07 | 44.36400 | 8.84714 | 6646 ft | 210 kts | 229° |
| 2026-04-16 08:07 | 44.35448 | 8.83213 | 7811 ft | 214 kts | 227° |
| 2026-04-16 08:07 | 44.34255 | 8.82029 | 8976 ft | 216 kts | 199° |
| 2026-04-16 08:07 | 44.32796 | 8.81723 | 10047 ft | 221 kts | 181° |
| 2026-04-16 08:08 | 44.31205 | 8.81620 | 10594 ft | 236 kts | 181° |
| 2026-04-16 08:08 | 44.29567 | 8.81504 | 11005 ft | 231 kts | 181° |
| 2026-04-16 08:08 | 44.27967 | 8.81390 | 11375 ft | 229 kts | 181° |
| 2026-04-16 08:08 | 44.26373 | 8.81276 | 11723 ft | 230 kts | 181° |
| 2026-04-16 08:09 | 44.24770 | 8.81162 | 12064 ft | 230 kts | 181° |
| 2026-04-16 08:09 | 44.23171 | 8.81047 | 12408 ft | 232 kts | 182° |
| 2026-04-16 08:09 | 44.21556 | 8.80931 | 12742 ft | 234 kts | 181° |
| 2026-04-16 08:09 | 44.19900 | 8.80812 | 13091 ft | 236 kts | 181° |
| 2026-04-16 08:10 | 44.18263 | 8.80693 | 13442 ft | 238 kts | 181° |
| 2026-04-16 08:10 | 44.16563 | 8.80571 | 13551 ft | 247 kts | 182° |
| 2026-04-16 08:10 | 44.14870 | 8.80449 | 13498 ft | 243 kts | 182° |
| 2026-04-16 08:10 | 44.13149 | 8.80324 | 13573 ft | 263 kts | 182° |
| 2026-04-16 08:11 | 44.11362 | 8.79716 | 14793 ft | 265 kts | 213° |
| 2026-04-16 08:11 | 44.10204 | 8.77995 | 16269 ft | 247 kts | 249° |
| 2026-04-16 08:11 | 44.09950 | 8.75753 | 17363 ft | 239 kts | 283° |
| 2026-04-16 08:11 | 44.10539 | 8.73651 | 18379 ft | 234 kts | 311° |
| 2026-04-16 08:12 | 44.11751 | 8.72244 | 19361 ft | 231 kts | 339° |
| 2026-04-16 08:12 | 44.13291 | 8.71831 | 20284 ft | 233 kts | 2° |
| 2026-04-16 08:12 | 44.15008 | 8.71981 | 20600 ft | 265 kts | 5° |
| 2026-04-16 08:12 | 44.16938 | 8.72188 | 21024 ft | 290 kts | 4° |
| 2026-04-16 08:13 | 44.18979 | 8.72545 | 21618 ft | 308 kts | 14° |
| 2026-04-16 08:13 | 44.20974 | 8.73928 | 21798 ft | 340 kts | 39° |
| 2026-04-16 08:13 | 44.22642 | 8.76428 | 22280 ft | 360 kts | 47° |
| 2026-04-16 08:13 | 44.24296 | 8.79086 | 23016 ft | 369 kts | 47° |
| 2026-04-16 08:14 | 44.25989 | 8.81790 | 23914 ft | 373 kts | 47° |
| 2026-04-16 08:14 | 44.27702 | 8.84529 | 24782 ft | 378 kts | 47° |
| 2026-04-16 08:14 | 44.29453 | 8.87328 | 25596 ft | 383 kts | 47° |
| 2026-04-16 08:14 | 44.31211 | 8.90142 | 26360 ft | 388 kts | 47° |
| 2026-04-16 08:15 | 44.33003 | 8.93010 | 27086 ft | 393 kts | 47° |
| 2026-04-16 08:15 | 44.34788 | 8.95871 | 27758 ft | 398 kts | 47° |
| 2026-04-16 08:15 | 44.36637 | 8.98835 | 28413 ft | 403 kts | 47° |
| 2026-04-16 08:15 | 44.38481 | 9.01801 | 29043 ft | 408 kts | 48° |
| 2026-04-16 08:16 | 44.40078 | 9.05060 | 29645 ft | 415 kts | 61° |
| 2026-04-16 08:16 | 44.41069 | 9.08893 | 30215 ft | 423 kts | 76° |
| 2026-04-16 08:16 | 44.41284 | 9.13063 | 30744 ft | 430 kts | 92° |
| 2026-04-16 08:16 | 44.40692 | 9.17224 | 31232 ft | 437 kts | 104° |
| 2026-04-16 08:17 | 44.39860 | 9.21375 | 31714 ft | 441 kts | 104° |
| 2026-04-16 08:17 | 44.39038 | 9.25502 | 32203 ft | 444 kts | 104° |
| 2026-04-16 08:17 | 44.38200 | 9.29698 | 32692 ft | 446 kts | 104° |
| 2026-04-16 08:17 | 44.37358 | 9.33907 | 33142 ft | 448 kts | 104° |
| 2026-04-16 08:18 | 44.36518 | 9.38100 | 33529 ft | 451 kts | 104° |
| 2026-04-16 08:19 | 44.30577 | 9.67493 | 37192 ft | 442 kts | 105° |
| 2026-04-16 08:20 | 44.29732 | 9.71645 | 37612 ft | 441 kts | 105° |
| 2026-04-16 08:20 | 44.28896 | 9.75739 | 37922 ft | 442 kts | 105° |
| 2026-04-16 08:20 | 44.28056 | 9.79846 | 38169 ft | 445 kts | 105° |
| 2026-04-16 08:20 | 44.27202 | 9.84011 | 38438 ft | 446 kts | 105° |
| 2026-04-16 08:21 | 44.26352 | 9.88150 | 38730 ft | 446 kts | 105° |
| 2026-04-16 08:21 | 44.25491 | 9.92334 | 39015 ft | 446 kts | 105° |
| 2026-04-16 08:21 | 44.24641 | 9.96453 | 39297 ft | 446 kts | 105° |
| 2026-04-16 08:21 | 44.23779 | 10.00624 | 39604 ft | 445 kts | 105° |
| 2026-04-16 08:22 | 44.22917 | 10.04787 | 39915 ft | 444 kts | 105° |
| 2026-04-16 08:22 | 44.22066 | 10.08890 | 40142 ft | 444 kts | 105° |
| 2026-04-16 08:22 | 44.21212 | 10.12995 | 40345 ft | 444 kts | 105° |
| 2026-04-16 08:22 | 44.20356 | 10.17104 | 40508 ft | 444 kts | 104° |
| 2026-04-16 08:23 | 44.19479 | 10.21303 | 40658 ft | 444 kts | 104° |
| 2026-04-16 08:23 | 44.18607 | 10.25474 | 40795 ft | 444 kts | 104° |
| 2026-04-16 08:23 | 44.17739 | 10.29615 | 40931 ft | 445 kts | 104° |
| 2026-04-16 08:23 | 44.16861 | 10.33797 | 41066 ft | 445 kts | 104° |
| 2026-04-16 08:24 | 44.15120 | 10.42158 | 41125 ft | 449 kts | 104° |
| 2026-04-16 08:24 | 44.13366 | 10.50590 | 41124 ft | 449 kts | 104° |
| 2026-04-16 08:25 | 44.11614 | 10.58996 | 41118 ft | 448 kts | 103° |
| 2026-04-16 08:25 | 44.10049 | 10.67444 | 41119 ft | 452 kts | 102° |
| 2026-04-16 08:26 | 44.08495 | 10.75910 | 41119 ft | 455 kts | 103° |
| 2026-04-16 08:26 | 44.06923 | 10.84429 | 41120 ft | 456 kts | 102° |
| 2026-04-16 08:27 | 44.05334 | 10.92994 | 41120 ft | 456 kts | 102° |
| 2026-04-16 08:27 | 44.03749 | 11.01502 | 41122 ft | 455 kts | 102° |
| 2026-04-16 08:28 | 44.02159 | 11.09996 | 41122 ft | 455 kts | 102° |
| 2026-04-16 08:28 | 44.00557 | 11.18514 | 41112 ft | 454 kts | 102° |
| 2026-04-16 08:29 | 43.98957 | 11.26983 | 41106 ft | 452 kts | 102° |
| 2026-04-16 08:29 | 43.97360 | 11.35395 | 41118 ft | 451 kts | 102° |
| 2026-04-16 08:30 | 43.95761 | 11.43784 | 41124 ft | 450 kts | 102° |
| 2026-04-16 08:30 | 43.94167 | 11.52113 | 41119 ft | 449 kts | 102° |
| 2026-04-16 08:31 | 43.92554 | 11.60505 | 41121 ft | 449 kts | 102° |
| 2026-04-16 08:31 | 43.91036 | 11.68932 | 41113 ft | 448 kts | 101° |
| 2026-04-16 08:32 | 43.89579 | 11.77286 | 41112 ft | 447 kts | 101° |
| 2026-04-16 08:32 | 43.88125 | 11.85642 | 41111 ft | 445 kts | 101° |
| 2026-04-16 08:33 | 43.86683 | 11.93936 | 41113 ft | 444 kts | 101° |
| 2026-04-16 08:33 | 43.85233 | 12.02234 | 41121 ft | 444 kts | 101° |
| 2026-04-16 08:34 | 43.83770 | 12.10568 | 41112 ft | 444 kts | 101° |
| 2026-04-16 08:34 | 43.82309 | 12.18843 | 41116 ft | 443 kts | 101° |
| 2026-04-16 08:35 | 43.80823 | 12.27102 | 41115 ft | 443 kts | 101° |
| 2026-04-16 08:35 | 43.79308 | 12.35391 | 41122 ft | 442 kts | 101° |
| 2026-04-16 08:36 | 43.77821 | 12.43659 | 41120 ft | 441 kts | 101° |
| 2026-04-16 08:36 | 43.76331 | 12.51918 | 41113 ft | 441 kts | 101° |
| 2026-04-16 08:37 | 43.74842 | 12.60132 | 41110 ft | 441 kts | 101° |
| 2026-04-16 08:37 | 43.73342 | 12.68371 | 41112 ft | 441 kts | 101° |
| 2026-04-16 08:38 | 43.71834 | 12.76616 | 41114 ft | 441 kts | 101° |
| 2026-04-16 08:38 | 43.70316 | 12.84876 | 41117 ft | 440 kts | 101° |
| 2026-04-16 08:39 | 43.68792 | 12.93138 | 41112 ft | 440 kts | 101° |
| 2026-04-16 08:39 | 43.67277 | 13.01311 | 41105 ft | 439 kts | 101° |
| 2026-04-16 08:40 | 43.65751 | 13.09510 | 41097 ft | 439 kts | 101° |
| 2026-04-16 08:40 | 43.64221 | 13.17694 | 41094 ft | 441 kts | 101° |
| 2026-04-16 08:41 | 43.62688 | 13.25854 | 41118 ft | 440 kts | 101° |
| 2026-04-16 08:41 | 43.61141 | 13.34056 | 41129 ft | 439 kts | 101° |
| 2026-04-16 08:42 | 43.59592 | 13.42234 | 41118 ft | 439 kts | 101° |
| 2026-04-16 08:42 | 43.58581 | 13.50464 | 41110 ft | 435 kts | 89° |
| 2026-04-16 08:43 | 43.58421 | 13.58777 | 41111 ft | 435 kts | 89° |
| 2026-04-16 08:43 | 43.58254 | 13.67105 | 41104 ft | 435 kts | 89° |
| 2026-04-16 08:44 | 43.58167 | 13.71303 | 40920 ft | 441 kts | 89° |
| 2026-04-16 08:44 | 43.58078 | 13.75563 | 40437 ft | 445 kts | 89° |
| 2026-04-16 08:44 | 43.57987 | 13.79764 | 39815 ft | 444 kts | 89° |
| 2026-04-16 08:44 | 43.57893 | 13.83996 | 39249 ft | 437 kts | 89° |
| 2026-04-16 08:45 | 43.57799 | 13.88168 | 38651 ft | 431 kts | 89° |
| 2026-04-16 08:45 | 43.57705 | 13.92244 | 38141 ft | 424 kts | 89° |
| 2026-04-16 08:45 | 43.57611 | 13.96316 | 37566 ft | 427 kts | 89° |
| 2026-04-16 08:45 | 43.57514 | 14.00447 | 37000 ft | 429 kts | 89° |
| 2026-04-16 08:46 | 43.57416 | 14.04553 | 36438 ft | 430 kts | 89° |
| 2026-04-16 08:46 | 43.57317 | 14.08644 | 35908 ft | 432 kts | 89° |
| 2026-04-16 08:46 | 43.57216 | 14.12760 | 35289 ft | 432 kts | 89° |
| 2026-04-16 08:46 | 43.57113 | 14.16878 | 34728 ft | 432 kts | 90° |
| 2026-04-16 08:47 | 43.57008 | 14.21010 | 34121 ft | 434 kts | 90° |
| 2026-04-16 08:47 | 43.56900 | 14.25159 | 33561 ft | 435 kts | 90° |
| 2026-04-16 08:47 | 43.56792 | 14.29309 | 32995 ft | 434 kts | 90° |
| 2026-04-16 08:47 | 43.56681 | 14.33471 | 32407 ft | 432 kts | 90° |
| 2026-04-16 08:48 | 43.56571 | 14.37565 | 31857 ft | 428 kts | 90° |
| 2026-04-16 08:48 | 43.56418 | 14.41648 | 31279 ft | 426 kts | 94° |
| 2026-04-16 08:48 | 43.55927 | 14.45616 | 30678 ft | 425 kts | 101° |
| 2026-04-16 08:48 | 43.55280 | 14.49603 | 30077 ft | 422 kts | 101° |
| 2026-04-16 08:49 | 43.54651 | 14.53487 | 29546 ft | 419 kts | 101° |
| 2026-04-16 08:49 | 43.54010 | 14.57439 | 28990 ft | 417 kts | 101° |
| 2026-04-16 08:49 | 43.53383 | 14.61292 | 28448 ft | 416 kts | 101° |
| 2026-04-16 08:49 | 43.52744 | 14.65212 | 27883 ft | 414 kts | 102° |
| 2026-04-16 08:50 | 43.52117 | 14.69047 | 27341 ft | 411 kts | 102° |
| 2026-04-16 08:50 | 43.51485 | 14.72909 | 26792 ft | 410 kts | 102° |
| 2026-04-16 08:50 | 43.50867 | 14.76673 | 26258 ft | 408 kts | 102° |
| 2026-04-16 08:50 | 43.50242 | 14.80474 | 25718 ft | 406 kts | 102° |
| 2026-04-16 08:51 | 43.49620 | 14.84245 | 25179 ft | 403 kts | 102° |
| 2026-04-16 08:51 | 43.49002 | 14.87984 | 24653 ft | 400 kts | 102° |
| 2026-04-16 08:51 | 43.48383 | 14.91719 | 24120 ft | 398 kts | 102° |
| 2026-04-16 08:51 | 43.47770 | 14.95411 | 23594 ft | 395 kts | 102° |
| 2026-04-16 08:52 | 43.47156 | 14.99105 | 23071 ft | 393 kts | 102° |
| 2026-04-16 08:52 | 43.46547 | 15.02758 | 22546 ft | 390 kts | 102° |
| 2026-04-16 08:52 | 43.45948 | 15.06339 | 22039 ft | 386 kts | 102° |
| 2026-04-16 08:52 | 43.45350 | 15.09910 | 21529 ft | 382 kts | 102° |
| 2026-04-16 08:53 | 43.44756 | 15.13448 | 21027 ft | 378 kts | 102° |
| 2026-04-16 08:53 | 43.44167 | 15.16956 | 20520 ft | 374 kts | 102° |
| 2026-04-16 08:53 | 43.43583 | 15.20419 | 20036 ft | 370 kts | 102° |
| 2026-04-16 08:53 | 43.43010 | 15.23813 | 19548 ft | 367 kts | 102° |
| 2026-04-16 08:54 | 43.42434 | 15.27222 | 19061 ft | 363 kts | 102° |
| 2026-04-16 08:54 | 43.41864 | 15.30587 | 18585 ft | 360 kts | 102° |
| 2026-04-16 08:54 | 43.41296 | 15.33934 | 18103 ft | 357 kts | 102° |
| 2026-04-16 08:54 | 43.40734 | 15.37234 | 17637 ft | 355 kts | 102° |
| 2026-04-16 08:55 | 43.40178 | 15.40498 | 17169 ft | 351 kts | 102° |
| 2026-04-16 08:55 | 43.39621 | 15.43757 | 16705 ft | 349 kts | 102° |
| 2026-04-16 08:55 | 43.39067 | 15.46998 | 16244 ft | 346 kts | 102° |
| 2026-04-16 08:55 | 43.38523 | 15.50175 | 15792 ft | 344 kts | 102° |
| 2026-04-16 08:56 | 43.37977 | 15.53355 | 15335 ft | 341 kts | 102° |
| 2026-04-16 08:56 | 43.37432 | 15.56520 | 14884 ft | 339 kts | 102° |
| 2026-04-16 08:56 | 43.36899 | 15.59611 | 14699 ft | 320 kts | 102° |
| 2026-04-16 08:56 | 43.36399 | 15.62508 | 14423 ft | 305 kts | 102° |
| 2026-04-16 08:57 | 43.35916 | 15.65296 | 13946 ft | 298 kts | 102° |
| 2026-04-16 08:57 | 43.35441 | 15.68046 | 13417 ft | 295 kts | 102° |
| 2026-04-16 08:57 | 43.34965 | 15.70788 | 12870 ft | 292 kts | 102° |
| 2026-04-16 08:57 | 43.34499 | 15.73479 | 12399 ft | 287 kts | 102° |
| 2026-04-16 08:58 | 43.34045 | 15.76089 | 12044 ft | 285 kts | 102° |
| 2026-04-16 08:58 | 43.33579 | 15.78764 | 11648 ft | 289 kts | 102° |
| 2026-04-16 08:58 | 43.33113 | 15.81437 | 11264 ft | 289 kts | 102° |
| 2026-04-16 08:58 | 43.32643 | 15.84132 | 10865 ft | 285 kts | 102° |
| 2026-04-16 08:59 | 43.32184 | 15.86755 | 10499 ft | 283 kts | 102° |
| 2026-04-16 08:59 | 43.31728 | 15.89353 | 10111 ft | 282 kts | 102° |
| 2026-04-16 08:59 | 43.31263 | 15.91979 | 9737 ft | 280 kts | 104° |
| 2026-04-16 08:59 | 43.30574 | 15.94472 | 9377 ft | 280 kts | 112° |
| 2026-04-16 09:00 | 43.29787 | 15.96885 | 8991 ft | 276 kts | 112° |
| 2026-04-16 09:00 | 43.29020 | 15.99253 | 8636 ft | 270 kts | 112° |
| 2026-04-16 09:00 | 43.28270 | 16.01568 | 8271 ft | 261 kts | 112° |
| 2026-04-16 09:00 | 43.27545 | 16.03804 | 7949 ft | 254 kts | 112° |
| 2026-04-16 09:01 | 43.26153 | 16.08095 | 7333 ft | 240 kts | 112° |
| 2026-04-16 09:01 | 43.25472 | 16.10194 | 6973 ft | 242 kts | 112° |
| 2026-04-16 09:01 | 43.24995 | 16.12370 | 6611 ft | 239 kts | 94° |
| 2026-04-16 09:02 | 43.25210 | 16.14599 | 6202 ft | 238 kts | 68° |
| 2026-04-16 09:02 | 43.26116 | 16.16463 | 5819 ft | 238 kts | 43° |
| 2026-04-16 09:02 | 43.27537 | 16.17657 | 5330 ft | 242 kts | 24° |
| 2026-04-16 09:02 | 43.29067 | 16.18527 | 5077 ft | 235 kts | 24° |
| 2026-04-16 09:03 | 43.30559 | 16.19391 | 4768 ft | 230 kts | 24° |
| 2026-04-16 09:03 | 43.32016 | 16.20236 | 4477 ft | 226 kts | 24° |
| 2026-04-16 09:03 | 43.33455 | 16.21071 | 4167 ft | 221 kts | 23° |
| 2026-04-16 09:03 | 43.34761 | 16.22076 | 4012 ft | 207 kts | 40° |
| 2026-04-16 09:04 | 43.35799 | 16.23340 | 4039 ft | 195 kts | 42° |
| 2026-04-16 09:04 | 43.36811 | 16.24575 | 4021 ft | 192 kts | 41° |
| 2026-04-16 09:04 | 43.37814 | 16.25796 | 3777 ft | 193 kts | 41° |
| 2026-04-16 09:04 | 43.38823 | 16.27023 | 3530 ft | 194 kts | 41° |
| 2026-04-16 09:05 | 43.39813 | 16.28227 | 3451 ft | 182 kts | 41° |
| 2026-04-16 09:05 | 43.40724 | 16.29333 | 3258 ft | 174 kts | 41° |
| 2026-04-16 09:05 | 43.41625 | 16.30426 | 3024 ft | 168 kts | 41° |
| 2026-04-16 09:05 | 43.42524 | 16.31519 | 2998 ft | 172 kts | 41° |
| 2026-04-16 09:06 | 43.43422 | 16.32610 | 3006 ft | 172 kts | 41° |
| 2026-04-16 09:06 | 43.44314 | 16.33695 | 2998 ft | 165 kts | 41° |
| 2026-04-16 09:06 | 43.45132 | 16.34691 | 2962 ft | 157 kts | 41° |
| 2026-04-16 09:06 | 43.45945 | 16.35680 | 2715 ft | 151 kts | 41° |
| 2026-04-16 09:07 | 43.46719 | 16.36623 | 2551 ft | 144 kts | 41° |
| 2026-04-16 09:07 | 43.47417 | 16.37474 | 2377 ft | 124 kts | 40° |
| 2026-04-16 09:07 | 43.48058 | 16.38255 | 2225 ft | 124 kts | 40° |
| 2026-04-16 09:07 | 43.48698 | 16.39034 | 2040 ft | 121 kts | 40° |
| 2026-04-16 09:08 | 43.49343 | 16.39785 | 1899 ft | 121 kts | 33° |
| 2026-04-16 09:08 | 43.50122 | 16.40242 | 1804 ft | 123 kts | 13° |
| 2026-04-16 09:08 | 43.50960 | 16.40366 | 1657 ft | 122 kts | 4° |
| 2026-04-16 09:08 | 43.51829 | 16.40380 | 1501 ft | 123 kts | 358° |
| 2026-04-16 09:09 | 43.52680 | 16.40244 | 1375 ft | 124 kts | 351° |
| 2026-04-16 09:09 | 43.53511 | 16.39859 | 1232 ft | 126 kts | 331° |
| 2026-04-16 09:09 | 43.54197 | 16.39091 | 1095 ft | 128 kts | 311° |
| 2026-04-16 09:09 | 43.54679 | 16.38088 | 990 ft | 127 kts | 297° |
| 2026-04-16 09:10 | 43.54987 | 16.36935 | 867 ft | 127 kts | 284° |
| 2026-04-16 09:10 | 43.55179 | 16.35757 | 764 ft | 126 kts | 280° |
| 2026-04-16 09:10 | 43.55283 | 16.34561 | 674 ft | 125 kts | 273° |
| 2026-04-16 09:10 | 43.55280 | 16.33350 | 540 ft | 127 kts | 264° |
| 2026-04-16 09:11 | 43.55091 | 16.32159 | 381 ft | 128 kts | 248° |
| 2026-04-16 09:11 | 43.54641 | 16.31139 | 164 ft | 124 kts | 231° |
| 2026-04-16 09:11 | 43.54135 | 16.30232 | 60 ft | 97 kts | 232° |
| 2026-04-16 09:11 | 43.53873 | 16.29762 | 61 ft | 50 kts | 233° |
| 2026-04-16 09:12 | 43.53737 | 16.29514 | 62 ft | 15 kts | 232° |
| 2026-04-16 09:12 | 43.53697 | 16.29531 | 62 ft | 10 kts | 87° |
| 2026-04-16 09:12 | 43.53648 | 16.29570 | 61 ft | 10 kts | 185° |
| 2026-04-16 09:12 | 43.53590 | 16.29619 | 60 ft | 9 kts | 143° |
| 2026-04-16 09:13 | 43.53551 | 16.29627 | 60 ft | 5 kts | 202° |
| 2026-04-16 09:13 | 43.53534 | 16.29616 | 58 ft | 0 kts | 202° |